Auburndale, Wisconsin
Current Conditions -  °F | °C
As of 4:20 PM on Monday 22 Dec 2014 (Local Time) from KMFI Reporting Station
Haze Haze  
Wind Chill: 27°   Ceiling: 1400
Heat Index: 35°   Visibility: 5mi
Dew Point: 31°   Wind: 10mph
Humidity: 85%   Direction: 90°E
Pressure: 29.69"   Gusts: NA
Location:  44.63°N, 90.01°W
Report Text: KMFI 222220Z AUTO 09009KT 5SM BR OVC014 02/M01 A2969 RMK AO2 T00171006
Loading
Personal Weather Stations






























Interactive Weather Map New forecast layout! Learn more

10-Day Weather Forecast

Advertisements
Track Severe Weather on mobile